createdAt,value
2022-11-09T00:02:02.761Z,28.17
2022-11-09T00:05:06.059Z,30.15
2022-11-09T00:08:10.569Z,27.55
2022-11-09T00:11:13.457Z,29.30
2022-11-09T00:14:17.714Z,26.73
2022-11-09T00:17:20.402Z,25.85
2022-11-09T00:20:23.222Z,23.88
2022-11-09T00:23:25.886Z,25.23
2022-11-09T00:26:28.627Z,27.37
2022-11-09T00:29:31.398Z,26.60
2022-11-09T00:32:34.152Z,23.38
2022-11-09T00:35:38.862Z,23.52
2022-11-09T00:38:42.626Z,24.60
2022-11-09T00:41:45.270Z,24.63
2022-11-09T00:44:47.992Z,25.00
2022-11-09T00:47:50.690Z,23.55
2022-11-09T00:50:55.039Z,23.42
2022-11-09T00:53:58.636Z,26.83
2022-11-09T00:57:01.505Z,24.77
2022-11-09T01:00:05.802Z,31.63
2022-11-09T01:03:08.612Z,29.60
2022-11-09T01:06:25.605Z,27.73
2022-11-09T01:09:28.440Z,27.33
2022-11-09T01:12:31.255Z,30.53
2022-11-09T01:15:33.938Z,30.95
2022-11-09T01:18:39.985Z,27.17
2022-11-09T01:21:42.783Z,25.75
2022-11-09T01:24:46.174Z,24.73
2022-11-09T01:27:48.921Z,23.60
2022-11-09T01:30:51.666Z,21.80
2022-11-09T01:33:55.283Z,22.40
2022-11-09T01:36:58.187Z,20.85
2022-11-09T01:40:01.076Z,21.48
2022-11-09T01:43:23.559Z,20.13
2022-11-09T01:46:49.721Z,21.55
2022-11-09T01:50:00.327Z,22.05
2022-11-09T01:53:05.666Z,20.40
2022-11-09T01:56:11.580Z,20.60
2022-11-09T01:59:22.745Z,22.00
2022-11-09T02:02:26.078Z,22.17
2022-11-09T02:05:32.244Z,22.08
2022-11-09T02:08:35.096Z,23.77
2022-11-09T02:11:38.471Z,24.40
2022-11-09T02:14:41.827Z,21.40
2022-11-09T02:17:45.745Z,23.55
2022-11-09T02:20:51.705Z,24.02
2022-11-09T02:23:54.483Z,22.85
2022-11-09T02:26:59.442Z,23.60
2022-11-09T02:30:03.566Z,22.73
2022-11-09T02:33:06.583Z,25.45
2022-11-09T02:36:09.761Z,29.65
2022-11-09T02:39:15.379Z,33.17
2022-11-09T02:42:21.633Z,35.33
2022-11-09T02:45:27.409Z,37.10
2022-11-09T02:48:30.568Z,38.90
2022-11-09T02:51:33.970Z,37.95
2022-11-09T02:54:36.920Z,36.65
2022-11-09T02:57:41.087Z,30.73
2022-11-09T03:00:45.890Z,31.33
2022-11-09T03:03:49.819Z,29.50
2022-11-09T03:06:52.743Z,28.50
2022-11-09T03:09:55.925Z,28.17
2022-11-09T03:13:00.776Z,27.60
2022-11-09T03:16:05.677Z,27.13
2022-11-09T03:19:11.777Z,24.60
2022-11-09T03:22:14.981Z,24.20
2022-11-09T03:25:21.085Z,25.50
2022-11-09T03:28:25.008Z,25.70
2022-11-09T03:31:29.054Z,25.17
2022-11-09T03:34:33.309Z,25.15
2022-11-09T03:37:36.567Z,24.35
2022-11-09T03:40:40.437Z,22.80
2022-11-09T03:43:43.337Z,22.40
2022-11-09T03:46:46.176Z,22.33
2022-11-09T03:49:48.934Z,22.17
2022-11-09T03:52:51.577Z,22.70
2022-11-09T03:55:54.285Z,22.40
2022-11-09T03:58:57.069Z,22.67
2022-11-09T04:01:59.933Z,21.70
2022-11-09T04:05:02.825Z,24.75
2022-11-09T04:08:05.712Z,22.13
2022-11-09T04:11:08.378Z,22.33
2022-11-09T04:14:11.065Z,23.40
2022-11-09T04:17:13.736Z,24.17
2022-11-09T04:20:17.008Z,26.20
2022-11-09T04:23:20.032Z,26.27
2022-11-09T04:26:22.865Z,22.70
2022-11-09T04:29:25.651Z,24.07
2022-11-09T04:32:28.332Z,26.00
2022-11-09T04:35:33.453Z,25.35
2022-11-09T04:38:36.673Z,26.40
2022-11-09T04:41:39.388Z,27.25
2022-11-09T04:44:48.733Z,25.10
2022-11-09T04:47:51.405Z,24.43
2022-11-09T04:51:00.520Z,23.48
2022-11-09T04:54:03.224Z,22.50
2022-11-09T04:57:05.983Z,24.33
2022-11-09T05:00:09.447Z,24.37
2022-11-09T05:03:12.273Z,26.33
2022-11-09T05:06:33.410Z,24.80
2022-11-09T05:09:36.321Z,26.08
2022-11-09T05:12:42.223Z,25.92
2022-11-09T05:15:47.616Z,25.83
2022-11-09T05:18:51.038Z,24.73
2022-11-09T05:21:53.678Z,24.75
2022-11-09T05:24:56.455Z,25.80
2022-11-09T05:27:59.378Z,24.73
2022-11-09T05:31:02.230Z,23.93
2022-11-09T05:34:06.619Z,23.73
2022-11-09T05:37:09.309Z,23.02
2022-11-09T05:40:12.151Z,23.33
2022-11-09T05:43:15.011Z,23.42
2022-11-09T05:46:19.045Z,25.13
2022-11-09T05:49:21.844Z,28.90
2022-11-09T05:52:24.546Z,27.60
2022-11-09T05:55:28.070Z,28.65
2022-11-09T05:58:33.202Z,30.70
2022-11-09T06:01:36.051Z,31.50
2022-11-09T06:04:38.845Z,27.70
2022-11-09T06:07:41.576Z,27.27
2022-11-09T06:10:44.425Z,31.23
2022-11-09T06:13:47.111Z,34.08
2022-11-09T06:16:49.880Z,36.17
2022-11-09T06:19:52.897Z,35.47
2022-11-09T06:23:02.440Z,42.90
2022-11-09T06:26:10.016Z,44.75
2022-11-09T06:29:12.970Z,48.30
2022-11-09T06:32:15.670Z,44.43
2022-11-09T06:35:18.444Z,41.70
2022-11-09T06:38:21.347Z,38.13
2022-11-09T06:41:24.019Z,37.75
2022-11-09T06:44:26.812Z,33.72
2022-11-09T06:47:29.818Z,38.75
2022-11-09T06:50:33.922Z,35.77
2022-11-09T06:53:38.047Z,31.02
2022-11-09T06:56:40.861Z,27.10
2022-11-09T06:59:44.836Z,28.05
2022-11-09T07:02:49.841Z,24.77
2022-11-09T07:05:53.484Z,23.23
2022-11-09T07:08:57.302Z,24.60
2022-11-09T07:12:00.244Z,22.95
2022-11-09T07:15:04.061Z,23.15
2022-11-09T07:18:10.423Z,25.50
2022-11-09T07:21:14.537Z,22.40
2022-11-09T07:24:17.488Z,23.10
2022-11-09T07:27:24.857Z,24.77
2022-11-09T07:30:30.232Z,23.63
2022-11-09T07:33:33.923Z,20.98
2022-11-09T07:36:39.362Z,22.07
2022-11-09T07:39:42.323Z,21.63
2022-11-09T07:42:45.380Z,20.65
2022-11-09T07:45:48.360Z,22.23
2022-11-09T07:48:51.209Z,20.85
2022-11-09T07:51:54.736Z,22.50
2022-11-09T07:54:57.762Z,21.92
2022-11-09T07:58:03.967Z,20.38
2022-11-09T08:01:08.662Z,21.90
2022-11-09T08:04:11.550Z,21.60
2022-11-09T08:07:14.772Z,20.97
2022-11-09T08:10:17.585Z,18.35
2022-11-09T08:13:20.863Z,18.23
2022-11-09T08:16:24.317Z,18.15
2022-11-09T08:19:27.027Z,19.67
2022-11-09T08:22:29.773Z,18.70
2022-11-09T08:25:34.488Z,19.30
2022-11-09T08:28:37.796Z,21.05
2022-11-09T08:31:40.656Z,20.92
2022-11-09T08:34:47.831Z,21.02
2022-11-09T08:37:52.436Z,21.37
2022-11-09T08:40:59.122Z,22.50
2022-11-09T08:44:04.079Z,24.15
2022-11-09T08:47:06.853Z,25.27
2022-11-09T08:50:11.013Z,23.02
2022-11-09T08:53:13.674Z,22.33
2022-11-09T08:56:18.584Z,23.77
2022-11-09T08:59:21.379Z,22.08
2022-11-09T09:02:24.661Z,20.25
2022-11-09T09:05:27.409Z,20.70
2022-11-09T09:08:30.218Z,23.87
2022-11-09T09:11:34.390Z,22.77
2022-11-09T09:14:37.827Z,22.33
2022-11-09T09:17:41.558Z,20.33
2022-11-09T09:20:45.445Z,23.08
2022-11-09T09:23:49.542Z,22.23
2022-11-09T09:26:52.267Z,20.40
2022-11-09T09:29:55.141Z,21.30
2022-11-09T09:33:00.442Z,20.75
2022-11-09T09:36:03.589Z,20.95
2022-11-09T09:39:06.391Z,21.70
2022-11-09T09:42:17.500Z,22.27
2022-11-09T09:45:33.972Z,20.73
2022-11-09T09:48:40.150Z,20.85
2022-11-09T09:51:53.955Z,21.92
2022-11-09T09:55:10.320Z,21.97
2022-11-09T09:58:19.542Z,23.50
2022-11-09T10:01:28.406Z,24.27
2022-11-09T10:04:41.855Z,24.60
2022-11-09T10:07:53.888Z,26.00
2022-11-09T10:11:08.548Z,24.57
2022-11-09T10:14:26.440Z,18.98
2022-11-09T10:17:40.198Z,15.90
2022-11-09T10:21:04.950Z,19.17
2022-11-09T10:24:23.032Z,20.90
2022-11-09T10:27:35.638Z,23.63
2022-11-09T10:30:40.026Z,24.67
2022-11-09T10:33:58.235Z,24.90
2022-11-09T10:37:12.912Z,20.58
2022-11-09T10:40:37.592Z,20.55
2022-11-09T10:43:59.077Z,20.17
2022-11-09T10:47:26.389Z,21.35
2022-11-09T10:50:54.481Z,19.83
2022-11-09T10:54:32.430Z,23.33
2022-11-09T10:58:13.040Z,22.42
2022-11-09T11:01:39.560Z,22.80
2022-11-09T11:05:07.207Z,22.17
2022-11-09T11:08:38.656Z,21.48
2022-11-09T11:12:17.640Z,22.33
2022-11-09T11:15:41.944Z,20.08
2022-11-09T11:19:06.346Z,20.30
2022-11-09T11:22:29.685Z,19.98
2022-11-09T11:25:56.208Z,22.05
2022-11-09T11:29:35.890Z,19.77
2022-11-09T11:32:57.856Z,19.48
2022-11-09T11:36:28.075Z,19.37
2022-11-09T11:40:19.529Z,18.80
2022-11-09T11:43:56.073Z,18.70
2022-11-09T11:47:39.432Z,17.55
2022-11-09T11:51:18.253Z,19.55
2022-11-09T11:55:14.727Z,19.13
2022-11-09T11:59:05.866Z,19.40
2022-11-09T12:02:51.486Z,20.05
2022-11-09T12:06:15.718Z,19.33
2022-11-09T12:09:53.175Z,18.35
2022-11-09T12:13:30.145Z,17.67
2022-11-09T12:16:59.718Z,18.92
2022-11-09T12:20:34.457Z,19.13
2022-11-09T12:24:15.990Z,18.70
2022-11-09T12:27:43.521Z,18.48
2022-11-09T12:31:10.561Z,18.10
2022-11-09T12:34:48.212Z,19.55
2022-11-09T12:39:16.273Z,19.88
2022-11-09T12:43:05.234Z,18.38
2022-11-09T12:46:40.389Z,21.58
2022-11-09T12:50:02.220Z,23.23
2022-11-09T12:53:28.169Z,22.13
2022-11-09T12:57:03.684Z,21.30
2022-11-09T13:00:34.266Z,20.70
2022-11-09T13:03:58.677Z,22.58
2022-11-09T13:07:33.372Z,20.93
2022-11-09T13:11:19.141Z,21.08
2022-11-09T13:14:41.388Z,21.58
2022-11-09T13:18:06.061Z,22.23
2022-11-09T13:21:27.812Z,21.77
2022-11-09T13:24:49.000Z,22.20
2022-11-09T13:29:07.954Z,23.80
2022-11-09T13:36:42.424Z,26.95
2022-11-09T13:40:31.947Z,25.77
2022-11-09T13:44:27.083Z,26.07
2022-11-09T13:47:52.189Z,24.67
2022-11-09T13:51:20.208Z,25.92
2022-11-09T13:54:44.578Z,26.17
2022-11-09T13:58:30.685Z,27.02
2022-11-09T14:01:54.093Z,26.60
2022-11-09T14:05:34.811Z,28.70
2022-11-09T14:08:57.740Z,27.75
2022-11-09T14:12:43.368Z,28.02
2022-11-09T14:16:50.156Z,28.10
2022-11-09T14:20:42.276Z,29.63
2022-11-09T14:24:23.879Z,29.08
2022-11-09T14:27:58.587Z,29.98
2022-11-09T14:31:33.967Z,30.42
2022-11-09T14:35:37.434Z,31.00
2022-11-09T14:39:03.806Z,30.80
2022-11-09T14:42:25.366Z,31.27
2022-11-09T15:01:20.474Z,31.40
2022-11-09T15:05:02.703Z,35.72
2022-11-09T15:08:23.924Z,41.55
2022-11-09T15:11:46.783Z,40.85
2022-11-09T15:15:19.458Z,38.57
2022-11-09T15:18:46.201Z,38.47
2022-11-09T15:22:45.621Z,36.95
2022-11-09T15:26:25.925Z,35.78
2022-11-09T15:29:51.032Z,49.33
2022-11-09T15:33:20.303Z,45.50
2022-11-09T15:36:46.114Z,45.53
2022-11-09T15:40:19.362Z,44.72
2022-11-09T15:43:41.821Z,43.28
2022-11-09T15:47:04.061Z,41.90
2022-11-09T15:50:27.385Z,42.20
2022-11-09T15:53:48.920Z,40.05
2022-11-09T15:57:16.348Z,40.50
2022-11-09T16:00:37.760Z,43.45
2022-11-09T16:03:59.028Z,42.80
2022-11-09T16:07:20.631Z,45.47
2022-11-09T16:10:44.487Z,47.15
2022-11-09T16:14:06.007Z,45.75
2022-11-09T16:17:29.335Z,40.33
2022-11-09T16:20:50.763Z,40.67
2022-11-09T16:24:12.014Z,41.60
2022-11-09T16:27:49.744Z,42.28
2022-11-09T16:31:13.168Z,40.05
2022-11-09T16:34:34.284Z,54.75
2022-11-09T16:37:57.584Z,52.33
2022-11-09T16:41:19.946Z,57.60
2022-11-09T16:44:43.106Z,48.83
2022-11-09T16:48:11.391Z,46.78
2022-11-09T16:51:33.024Z,44.22
2022-11-09T16:54:54.701Z,47.13
2022-11-09T16:58:16.026Z,47.40
2022-11-09T17:01:37.682Z,46.35
2022-11-09T17:04:58.790Z,48.72
2022-11-09T17:08:20.883Z,53.75
2022-11-09T17:11:42.112Z,58.38
2022-11-09T17:15:03.597Z,55.87
2022-11-09T17:18:25.130Z,56.83
2022-11-09T17:21:46.946Z,116.45
2022-11-09T17:25:09.421Z,68.22
2022-11-09T17:28:31.651Z,72.78
2022-11-09T17:31:53.497Z,69.53
2022-11-09T17:35:14.679Z,73.47
2022-11-09T17:38:36.076Z,72.55
2022-11-09T17:41:57.377Z,78.13
2022-11-09T17:45:18.789Z,73.33
2022-11-09T17:48:42.171Z,76.77
2022-11-09T17:52:03.569Z,76.50
2022-11-09T17:55:25.178Z,77.88
2022-11-09T17:58:47.404Z,76.20
2022-11-09T18:02:10.698Z,87.90
2022-11-09T18:05:32.066Z,88.27
2022-11-09T18:09:19.280Z,86.93
2022-11-09T18:12:35.031Z,94.65
2022-11-09T18:15:56.244Z,85.10
2022-11-09T18:19:17.743Z,88.75
2022-11-09T18:22:39.099Z,95.10
2022-11-09T18:26:00.773Z,100.13
2022-11-09T18:29:22.270Z,101.38
2022-11-09T18:32:43.954Z,83.43
2022-11-09T18:36:09.376Z,80.05
2022-11-09T18:39:31.223Z,70.83
2022-11-09T18:43:03.734Z,63.67
2022-11-09T18:46:27.046Z,54.33
2022-11-09T18:49:49.743Z,55.17
2022-11-09T18:53:11.455Z,48.80
2022-11-09T18:56:32.841Z,57.30
2022-11-09T18:59:54.537Z,56.08
2022-11-09T19:03:16.488Z,49.90
2022-11-09T19:06:37.892Z,46.97
2022-11-09T19:09:59.595Z,47.35
2022-11-09T19:13:42.560Z,51.83
2022-11-09T19:17:37.394Z,53.45
2022-11-09T19:20:58.856Z,85.80
2022-11-09T19:24:22.397Z,67.50
2022-11-09T19:27:43.765Z,72.15
2022-11-09T19:31:05.310Z,81.73
2022-11-09T19:34:26.471Z,99.82
2022-11-09T19:37:47.989Z,76.28
2022-11-09T19:41:10.212Z,75.15
2022-11-09T19:44:32.059Z,65.25
2022-11-09T19:47:53.777Z,74.93
2022-11-09T19:51:17.910Z,87.32
2022-11-09T19:54:39.738Z,81.78
2022-11-09T19:58:01.620Z,77.82
2022-11-09T20:01:25.062Z,83.93
2022-11-09T20:04:47.657Z,58.27
2022-11-09T20:08:10.360Z,55.85
2022-11-09T20:11:50.544Z,54.05
2022-11-09T20:15:11.845Z,70.82
2022-11-09T20:18:37.960Z,73.22
2022-11-09T20:22:00.081Z,62.93
2022-11-09T20:25:21.895Z,55.30
2022-11-09T20:28:44.025Z,44.75
2022-11-09T20:32:05.412Z,43.45
2022-11-09T20:35:27.048Z,43.97
2022-11-09T20:38:48.813Z,52.13
2022-11-09T20:42:13.502Z,50.67
2022-11-09T20:45:36.473Z,50.63
2022-11-09T20:48:58.085Z,54.92
2022-11-09T20:52:20.031Z,56.92
2022-11-09T20:55:42.972Z,51.17
2022-11-09T20:59:05.531Z,53.10
2022-11-09T21:02:26.963Z,51.28
2022-11-09T21:05:52.406Z,48.63
2022-11-09T21:09:15.970Z,43.78
2022-11-09T21:12:37.459Z,43.63
2022-11-09T21:16:13.885Z,42.53
2022-11-09T21:19:35.649Z,43.22
2022-11-09T21:23:13.704Z,43.42
2022-11-09T21:26:54.305Z,47.25
2022-11-09T21:30:15.834Z,52.23
2022-11-09T21:33:37.583Z,47.30
2022-11-09T21:36:59.171Z,43.85
2022-11-09T21:40:20.698Z,43.17
2022-11-09T21:43:41.620Z,41.20
2022-11-09T21:47:03.397Z,41.30
2022-11-09T21:50:24.492Z,40.45
2022-11-09T21:53:46.694Z,41.75
2022-11-09T21:57:07.946Z,40.58
2022-11-09T22:00:29.028Z,40.88
2022-11-09T22:03:50.723Z,40.53
2022-11-09T22:07:11.834Z,41.17
2022-11-09T22:10:33.411Z,41.42
2022-11-09T22:14:12.628Z,39.33
2022-11-09T22:17:34.011Z,39.47
2022-11-09T22:20:56.862Z,38.83
2022-11-09T22:24:17.969Z,38.20
2022-11-09T22:27:39.132Z,38.85
2022-11-09T22:31:07.744Z,39.75
2022-11-09T22:34:29.139Z,38.75
2022-11-09T22:37:50.294Z,40.80
2022-11-09T22:41:14.354Z,41.00
2022-11-09T22:44:35.843Z,44.35
2022-11-09T22:47:56.985Z,40.95
2022-11-09T22:51:19.442Z,44.58
2022-11-09T22:54:40.402Z,39.63
2022-11-09T22:58:01.640Z,40.65
2022-11-09T23:01:23.008Z,41.20
2022-11-09T23:04:44.104Z,40.33
2022-11-09T23:08:05.871Z,41.65
2022-11-09T23:11:26.859Z,45.17
2022-11-09T23:15:05.871Z,43.63
2022-11-09T23:18:46.168Z,46.78
2022-11-09T23:22:07.600Z,43.25
2022-11-09T23:25:47.869Z,44.42
2022-11-09T23:29:09.018Z,43.50
2022-11-09T23:32:30.359Z,41.42
2022-11-09T23:35:51.238Z,38.22
2022-11-09T23:39:12.215Z,39.42
2022-11-09T23:42:33.708Z,39.35
2022-11-09T23:45:55.544Z,39.13
2022-11-09T23:49:16.852Z,38.03
2022-11-09T23:52:37.952Z,36.08
2022-11-09T23:56:05.999Z,35.00
2022-11-09T23:59:27.241Z,36.20
